Time;durP1;ratioP1;P1;durP2;ratioP2;P2;SDS_P1;SDS_P2;PMS_P1;PMS_P2;Temp;Humidity;BMP_temperature;BMP_pressure;BME280_temperature;BME280_humidity;BME280_pressure;Samples;Min_cycle;Max_cycle;Signal;HPM_P1;HPM_P2
2021/03/15 00:01:11;;;;;;;12.07;6.43;;;4.40;97.30;;;;;;5079592;28;20254;-80
2021/03/15 00:03:38;;;;;;;11.20;5.47;;;4.40;97.30;;;;;;5078624;28;20267;-80
2021/03/15 00:06:04;;;;;;;11.43;5.70;;;4.40;97.30;;;;;;5080683;28;20784;-81
2021/03/15 00:08:32;;;;;;;10.60;6.23;;;4.50;97.30;;;;;;5079915;28;20410;-81
2021/03/15 00:10:58;;;;;;;10.43;5.57;;;4.50;97.30;;;;;;5079918;28;20410;-81
2021/03/15 00:13:24;;;;;;;11.13;6.00;;;4.50;97.30;;;;;;5078657;28;20406;-80
2021/03/15 00:15:51;;;;;;;12.03;6.17;;;4.50;97.30;;;;;;5078110;28;20461;-81
2021/03/15 00:18:17;;;;;;;9.57;6.10;;;4.40;97.30;;;;;;5078377;28;20420;-81
2021/03/15 00:20:43;;;;;;;10.97;6.60;;;4.40;97.30;;;;;;5078015;28;20417;-80
2021/03/15 00:23:09;;;;;;;12.83;5.83;;;4.40;97.30;;;;;;5077999;28;20409;-80
2021/03/15 00:25:34;;;;;;;11.60;5.57;;;4.40;97.30;;;;;;5079795;28;20207;-80
2021/03/15 00:28:00;;;;;;;10.30;5.60;;;4.40;97.30;;;;;;5077967;28;20244;-81
2021/03/15 00:30:26;;;;;;;14.10;6.40;;;4.40;97.30;;;;;;5077912;28;20185;-80
2021/03/15 00:32:52;;;;;;;12.77;5.60;;;4.40;97.30;;;;;;5077810;28;20183;-81
2021/03/15 00:35:18;;;;;;;13.53;6.73;;;4.40;97.30;;;;;;5079466;28;20198;-81
2021/03/15 00:37:45;;;;;;;11.20;6.00;;;4.40;97.30;;;;;;5077510;28;20510;-81
2021/03/15 00:40:14;;;;;;;12.33;6.00;;;4.40;97.30;;;;;;5078671;28;20421;-83
2021/03/15 00:42:42;;;;;;;12.50;5.73;;;4.40;97.30;;;;;;5078227;28;20410;-81
2021/03/15 00:45:09;;;;;;;9.50;5.87;;;4.40;97.30;;;;;;5077757;28;20505;-80
2021/03/15 00:47:34;;;;;;;12.93;6.30;;;4.40;97.30;;;;;;5078847;28;20420;-80
2021/03/15 00:50:00;;;;;;;12.40;5.57;;;4.40;97.30;;;;;;5077151;28;20425;-80
2021/03/15 00:52:26;;;;;;;9.70;5.50;;;4.50;97.30;;;;;;5078972;28;20171;-80
2021/03/15 00:54:51;;;;;;;10.40;5.17;;;4.50;97.30;;;;;;5078371;28;20198;-81
2021/03/15 00:57:17;;;;;;;8.80;5.20;;;4.50;97.30;;;;;;5072611;28;20339;-81
2021/03/15 00:59:44;;;;;;;13.27;5.13;;;4.40;97.30;;;;;;5066846;28;20191;-80
2021/03/15 01:02:10;;;;;;;8.87;5.47;;;4.40;97.30;;;;;;5058256;28;20480;-81
2021/03/15 01:04:36;;;;;;;9.40;5.33;;;4.40;97.30;;;;;;5057694;28;20438;-80
2021/03/15 01:07:03;;;;;;;14.27;6.07;;;4.40;97.30;;;;;;5056416;28;20493;-83
2021/03/15 01:09:28;;;;;;;12.80;5.30;;;4.40;97.30;;;;;;5058052;28;20167;-83
2021/03/15 01:11:54;;;;;;;7.80;4.67;;;4.40;97.30;;;;;;5057175;28;20495;-80
2021/03/15 01:14:19;;;;;;;10.70;4.77;;;4.40;97.30;;;;;;5057442;28;20192;-81
2021/03/15 01:16:45;;;;;;;7.33;4.33;;;4.40;97.30;;;;;;5056918;28;20206;-79
2021/03/15 01:19:11;;;;;;;13.20;5.20;;;4.30;97.30;;;;;;5056020;28;20180;-83
2021/03/15 01:21:36;;;;;;;12.37;5.00;;;4.30;97.30;;;;;;5057820;28;20174;-81
2021/03/15 01:24:02;;;;;;;10.13;5.80;;;4.30;97.30;;;;;;5055895;28;20196;-82
2021/03/15 01:26:28;;;;;;;15.20;5.77;;;4.40;97.30;;;;;;5057156;28;20176;-81
2021/03/15 01:28:53;;;;;;;12.43;5.70;;;4.30;97.30;;;;;;5055517;28;20179;-83
2021/03/15 01:31:19;;;;;;;10.17;6.07;;;4.30;97.30;;;;;;5055884;28;20212;-83
2021/03/15 01:33:45;;;;;;;10.13;6.10;;;4.40;97.30;;;;;;5055231;28;20179;-80
2021/03/15 01:36:10;;;;;;;14.97;6.23;;;4.40;97.30;;;;;;5056373;28;20297;-82
2021/03/15 01:38:36;;;;;;;12.90;5.97;;;4.40;97.30;;;;;;5055332;28;20215;-82
2021/03/15 01:41:02;;;;;;;16.57;7.67;;;4.40;97.30;;;;;;5055411;28;20207;-83
2021/03/15 01:43:28;;;;;;;21.73;6.90;;;4.30;97.30;;;;;;5055422;28;20180;-80
2021/03/15 01:45:53;;;;;;;12.10;6.60;;;4.30;97.30;;;;;;5073224;28;20483;-80
2021/03/15 01:48:19;;;;;;;11.40;6.67;;;4.30;97.30;;;;;;5096982;28;20174;-83
2021/03/15 01:50:48;;;;;;;17.13;6.97;;;4.20;97.30;;;;;;5078485;28;20228;-81
2021/03/15 01:53:16;;;;;;;13.70;6.20;;;4.20;97.30;;;;;;5079058;28;20420;-80
2021/03/15 01:55:42;;;;;;;14.60;6.00;;;4.10;97.30;;;;;;5076714;28;20456;-83
2021/03/15 01:58:08;;;;;;;12.63;6.87;;;4.10;97.30;;;;;;5079443;28;20827;-83
2021/03/15 02:00:34;;;;;;;15.70;6.10;;;4.00;97.30;;;;;;5098176;28;20409;-82
2021/03/15 02:03:03;;;;;;;16.67;6.90;;;4.00;97.30;;;;;;5079785;28;20712;-82
2021/03/15 02:05:30;;;;;;;13.07;6.00;;;3.90;97.30;;;;;;5097847;28;20428;-83
2021/03/15 02:07:55;;;;;;;13.10;6.77;;;3.90;97.30;;;;;;5079839;28;20873;-80
2021/03/15 02:10:22;;;;;;;13.17;6.30;;;3.80;97.30;;;;;;5098965;28;20404;-81
2021/03/15 02:13:18;;;;;;;18.00;6.80;;;3.80;97.30;;;;;;5079261;28;20177;-81
2021/03/15 02:16:01;;;;;;;17.20;7.03;;;3.80;97.30;;;;;;5079655;28;20628;-83
2021/03/15 02:18:53;;;;;;;13.30;7.03;;;3.70;97.30;;;;;;5079831;28;20404;-81
2021/03/15 02:21:53;;;;;;;12.43;6.80;;;3.70;97.30;;;;;;5097806;28;20403;-81
2021/03/15 02:24:44;;;;;;;17.40;7.43;;;3.70;97.30;;;;;;5097548;28;20424;-83
2021/03/15 02:27:34;;;;;;;17.10;7.27;;;3.70;97.30;;;;;;5079491;28;20412;-81
2021/03/15 02:30:12;;;;;;;13.73;7.10;;;3.70;97.30;;;;;;5079838;28;20790;-83
2021/03/15 02:33:03;;;;;;;15.60;7.40;;;3.70;97.30;;;;;;5075122;28;21011;-82
2021/03/15 02:35:32;;;;;;;15.30;7.37;;;3.70;97.30;;;;;;5097409;28;20484;-84
2021/03/15 02:38:09;;;;;;;17.73;7.23;;;3.70;97.30;;;;;;5080443;28;20942;-83
2021/03/15 02:40:49;;;;;;;14.70;7.43;;;3.70;97.30;;;;;;5079516;28;20432;-83
2021/03/15 02:43:23;;;;;;;14.60;8.17;;;3.60;97.30;;;;;;5079982;28;20477;-83
2021/03/15 02:46:07;;;;;;;13.43;6.90;;;3.60;97.30;;;;;;5079674;28;20470;-83
2021/03/15 02:48:35;;;;;;;15.50;7.37;;;3.60;97.30;;;;;;5059711;28;20499;-82
2021/03/15 02:51:04;;;;;;;20.03;7.17;;;3.60;97.30;;;;;;5058771;28;20442;-82
2021/03/15 02:53:32;;;;;;;17.13;7.60;;;3.60;97.30;;;;;;5060163;28;20425;-83
2021/03/15 02:56:01;;;;;;;13.83;6.80;;;3.50;97.30;;;;;;5060270;28;20457;-82
2021/03/15 02:58:28;;;;;;;15.67;7.47;;;3.60;97.30;;;;;;5077435;28;20556;-83
2021/03/15 03:00:56;;;;;;;19.40;7.83;;;3.60;97.30;;;;;;5059146;28;20463;-83
2021/03/15 03:03:23;;;;;;;15.70;7.33;;;3.50;97.30;;;;;;5076660;28;20398;-83
2021/03/15 03:05:55;;;;;;;14.00;7.53;;;3.50;97.30;;;;;;5058512;28;20437;-83
2021/03/15 03:08:21;;;;;;;14.00;8.23;;;3.50;97.30;;;;;;5057665;28;20482;-82
2021/03/15 03:10:50;;;;;;;17.50;8.27;;;3.60;97.30;;;;;;5075742;28;20410;-80
2021/03/15 03:13:24;;;;;;;16.87;7.80;;;3.60;97.30;;;;;;5057701;28;20413;-82
2021/03/15 03:15:51;;;;;;;15.37;8.00;;;3.60;97.30;;;;;;5057812;28;20499;-82
2021/03/15 03:18:20;;;;;;;12.90;7.53;;;3.60;97.30;;;;;;5056935;28;20416;-80
2021/03/15 03:20:53;;;;;;;13.43;7.60;;;3.70;97.30;;;;;;5057275;28;20500;-82
2021/03/15 03:23:20;;;;;;;14.77;7.47;;;3.70;97.30;;;;;;5058124;28;20440;-82
2021/03/15 03:25:47;;;;;;;21.00;8.50;;;3.70;97.30;;;;;;5056847;28;20449;-82
2021/03/15 03:28:16;;;;;;;14.63;7.70;;;3.70;97.30;;;;;;5057765;28;20950;-82
2021/03/15 03:30:43;;;;;;;14.97;7.93;;;3.70;97.30;;;;;;5056868;28;20486;-82
2021/03/15 03:33:10;;;;;;;17.33;7.93;;;3.80;97.30;;;;;;5075415;28;20790;-83
2021/03/15 03:35:36;;;;;;;16.77;8.17;;;3.80;97.30;;;;;;5057527;28;20543;-82
2021/03/15 03:38:02;;;;;;;15.67;7.57;;;3.90;97.30;;;;;;5057550;28;20449;-82
2021/03/15 03:40:28;;;;;;;18.23;8.80;;;3.90;97.30;;;;;;5056790;28;20413;-83
2021/03/15 03:42:54;;;;;;;17.00;8.33;;;3.90;97.30;;;;;;5075656;28;20747;-83
2021/03/15 03:45:21;;;;;;;22.87;7.47;;;3.90;97.30;;;;;;5057258;28;20460;-83
2021/03/15 03:47:47;;;;;;;18.30;7.60;;;3.90;97.30;;;;;;5090863;28;20873;-82
2021/03/15 03:50:17;;;;;;;17.73;8.03;;;4.00;97.30;;;;;;5096278;28;20443;-82
2021/03/15 03:53:00;;;;;;;18.30;8.43;;;4.00;97.30;;;;;;5077310;28;20194;-83
2021/03/15 03:55:31;;;;;;;19.70;8.13;;;4.00;97.30;;;;;;5078037;28;20505;-82
2021/03/15 03:57:58;;;;;;;14.57;8.20;;;4.00;97.30;;;;;;5078071;28;20858;-83
2021/03/15 04:00:25;;;;;;;20.20;8.27;;;4.00;97.30;;;;;;5095920;28;20412;-83
2021/03/15 04:02:56;;;;;;;15.93;8.03;;;4.00;97.30;;;;;;5078238;28;20411;-82
2021/03/15 04:05:27;;;;;;;15.37;8.43;;;4.00;97.30;;;;;;5077903;28;20435;-83
2021/03/15 04:08:01;;;;;;;16.40;7.80;;;4.00;97.30;;;;;;5077954;28;20409;-82
2021/03/15 04:10:30;;;;;;;13.83;7.57;;;4.00;97.30;;;;;;5078041;28;20440;-83
2021/03/15 04:13:01;;;;;;;14.87;7.37;;;4.00;97.30;;;;;;5078681;28;20985;-82
2021/03/15 04:15:28;;;;;;;24.90;8.43;;;3.90;97.30;;;;;;5078234;28;20428;-82
2021/03/15 04:17:55;;;;;;;16.53;8.10;;;4.00;97.30;;;;;;5078300;28;20412;-82
2021/03/15 04:20:27;;;;;;;18.70;7.97;;;4.00;97.30;;;;;;5082162;28;20414;-83
2021/03/15 04:22:57;;;;;;;28.60;8.30;;;3.90;97.30;;;;;;5082603;28;20473;-83
2021/03/15 04:25:25;;;;;;;18.30;7.90;;;3.90;97.30;;;;;;5082484;28;20960;-83
2021/03/15 04:27:52;;;;;;;14.40;8.50;;;3.90;97.30;;;;;;5082494;28;20745;-83
2021/03/15 04:30:22;;;;;;;16.47;7.83;;;3.90;97.30;;;;;;5082482;28;20493;-81
2021/03/15 04:32:53;;;;;;;16.03;8.00;;;3.90;97.30;;;;;;5100567;28;20409;-83
2021/03/15 04:35:26;;;;;;;25.90;9.13;;;3.90;97.30;;;;;;5081737;28;20443;-83
2021/03/15 04:37:53;;;;;;;16.60;8.90;;;3.90;97.30;;;;;;5082280;28;20419;-82
2021/03/15 04:40:21;;;;;;;19.37;8.27;;;3.90;97.30;;;;;;5100061;28;20924;-83
2021/03/15 04:42:48;;;;;;;12.83;8.20;;;3.90;97.30;;;;;;5081430;28;20747;-83
2021/03/15 04:45:15;;;;;;;17.60;8.03;;;3.90;97.30;;;;;;5151523;22;20488;-86
2021/03/15 04:47:41;;;;;;;17.30;9.00;;;3.90;97.30;;;;;;5078788;28;20412;-85
2021/03/15 04:50:09;;;;;;;18.73;7.97;;;4.00;97.30;;;;;;5078267;28;20443;-85
2021/03/15 04:52:37;;;;;;;26.93;9.70;;;4.00;97.30;;;;;;5078560;28;20795;-85
2021/03/15 04:55:05;;;;;;;21.87;8.63;;;4.00;97.30;;;;;;5078829;28;20433;-85
2021/03/15 04:57:33;;;;;;;19.77;8.97;;;4.00;97.30;;;;;;5078384;28;20467;-86
2021/03/15 05:00:03;;;;;;;24.37;8.97;;;4.00;97.30;;;;;;5078576;28;20428;-85
2021/03/15 05:02:30;;;;;;;19.70;8.50;;;4.00;97.30;;;;;;5096558;28;20433;-85
2021/03/15 05:04:57;;;;;;;27.57;10.23;;;4.00;97.30;;;;;;5079187;28;20432;-85
2021/03/15 05:07:23;;;;;;;17.77;8.47;;;4.10;97.30;;;;;;5096989;28;20405;-85
2021/03/15 05:09:50;;;;;;;18.10;8.13;;;4.10;97.30;;;;;;5095656;28;20826;-86
2021/03/15 05:12:17;;;;;;;14.33;7.03;;;4.10;97.30;;;;;;5078281;28;20409;-85
2021/03/15 05:14:43;;;;;;;17.33;7.53;;;4.00;97.30;;;;;;5077864;28;20439;-85
2021/03/15 05:17:11;;;;;;;16.47;8.23;;;4.00;97.30;;;;;;5077936;28;20452;-85
2021/03/15 05:19:39;;;;;;;19.70;8.10;;;4.00;97.30;;;;;;5077294;28;20504;-85
2021/03/15 05:22:06;;;;;;;16.10;7.83;;;3.90;97.30;;;;;;5077372;28;20413;-85
2021/03/15 05:24:34;;;;;;;19.47;8.37;;;3.90;97.30;;;;;;5094624;28;20805;-85
2021/03/15 05:27:00;;;;;;;14.40;8.00;;;3.80;97.30;;;;;;5077016;28;20412;-85
2021/03/15 05:29:28;;;;;;;27.07;9.80;;;3.80;97.30;;;;;;5077217;28;20417;-85
2021/03/15 05:31:55;;;;;;;22.53;9.40;;;3.80;97.30;;;;;;5077160;28;20446;-85
2021/03/15 05:34:23;;;;;;;20.83;9.37;;;3.70;97.30;;;;;;5076751;28;20444;-86
2021/03/15 05:36:50;;;;;;;20.97;10.40;;;3.70;97.30;;;;;;5076111;28;21010;-85
2021/03/15 05:39:16;;;;;;;21.77;10.53;;;3.70;97.30;;;;;;5076527;28;20401;-85
2021/03/15 05:42:25;;;;;;;24.30;10.40;;;3.70;97.30;;;;;;5076830;28;20408;-85
2021/03/15 05:45:20;;;;;;;28.27;9.77;;;3.60;97.30;;;;;;5034244;28;20464;-85
2021/03/15 05:48:14;;;;;;;22.20;10.17;;;3.60;97.30;;;;;;5076951;28;20544;-85
2021/03/15 05:50:58;;;;;;;24.47;9.70;;;3.60;97.30;;;;;;5064907;28;20409;-84
2021/03/15 05:53:45;;;;;;;20.77;10.87;;;3.60;97.30;;;;;;5046476;28;20410;-86
2021/03/15 05:56:23;;;;;;;23.00;9.83;;;3.60;97.30;;;;;;5052911;28;21083;-85
2021/03/15 05:59:10;;;;;;;21.83;9.63;;;3.60;97.30;;;;;;5056293;28;20417;-86
2021/03/15 06:01:51;;;;;;;23.77;10.47;;;3.60;97.30;;;;;;5056490;28;20417;-85
2021/03/15 06:04:47;;;;;;;25.90;11.03;;;3.60;97.30;;;;;;5058717;28;20416;-85
2021/03/15 06:07:18;;;;;;;21.50;9.73;;;3.70;97.30;;;;;;5051918;28;20446;-85
2021/03/15 06:10:02;;;;;;;28.30;10.67;;;3.70;97.30;;;;;;5072736;28;20449;-86
2021/03/15 06:12:35;;;;;;;24.60;11.10;;;3.70;97.30;;;;;;5054590;28;20410;-85
2021/03/15 06:15:01;;;;;;;25.53;10.50;;;3.70;97.30;;;;;;5038952;28;20438;-84
2021/03/15 06:17:30;;;;;;;27.60;11.00;;;3.70;97.30;;;;;;5036227;28;20512;-84
2021/03/15 06:19:56;;;;;;;25.27;10.77;;;3.70;97.30;;;;;;5037006;28;20198;-86
2021/03/15 06:22:23;;;;;;;29.77;11.77;;;3.70;97.30;;;;;;5036659;28;20410;-85
2021/03/15 06:24:50;;;;;;;21.60;11.27;;;3.70;97.30;;;;;;5036238;28;20957;-84
2021/03/15 06:27:17;;;;;;;25.90;11.67;;;3.70;97.30;;;;;;5038295;28;20422;-85
2021/03/15 06:29:42;;;;;;;28.17;11.30;;;3.70;97.30;;;;;;5055643;28;20413;-85
2021/03/15 06:32:08;;;;;;;20.43;10.07;;;3.80;97.30;;;;;;5053893;28;20436;-82
2021/03/15 06:34:35;;;;;;;29.83;10.77;;;3.80;97.30;;;;;;5071369;28;20214;-83
2021/03/15 06:37:01;;;;;;;25.37;9.83;;;3.80;97.30;;;;;;5054118;28;20503;-85
2021/03/15 06:39:28;;;;;;;22.23;9.20;;;3.80;97.30;;;;;;5054830;28;20433;-85
2021/03/15 06:41:56;;;;;;;23.03;9.47;;;3.90;97.30;;;;;;5053899;28;20455;-84
2021/03/15 06:44:22;;;;;;;22.93;10.57;;;3.90;97.30;;;;;;5054396;28;20842;-85
2021/03/15 06:46:48;;;;;;;26.07;11.03;;;3.90;97.30;;;;;;5054481;28;20433;-86
2021/03/15 06:49:13;;;;;;;18.00;9.00;;;4.00;97.30;;;;;;5055482;28;20206;-84
2021/03/15 06:52:03;;;;;;;22.53;10.23;;;4.00;97.30;;;;;;5054700;28;20228;-84
2021/03/15 06:54:29;;;;;;;20.30;10.07;;;4.00;97.30;;;;;;5054267;28;20175;-85
2021/03/15 06:57:21;;;;;;;22.80;8.67;;;4.00;97.30;;;;;;5054223;28;20461;-87
2021/03/15 06:59:47;;;;;;;16.33;8.23;;;4.00;97.30;;;;;;5040917;28;20183;-85
2021/03/15 07:02:33;;;;;;;19.33;8.70;;;4.10;97.30;;;;;;5054187;28;20463;-87
2021/03/15 07:05:13;;;;;;;19.37;8.07;;;4.10;97.30;;;;;;5053372;28;20442;-84
2021/03/15 07:07:48;;;;;;;16.47;8.00;;;4.10;97.30;;;;;;5071628;28;20406;-85
2021/03/15 07:10:18;;;;;;;14.87;7.20;;;4.10;97.30;;;;;;5045299;28;20462;-87
2021/03/15 07:12:45;;;;;;;18.50;8.20;;;4.00;97.30;;;;;;5052078;28;20956;-85
2021/03/15 07:15:11;;;;;;;14.83;6.93;;;4.00;97.30;;;;;;5044926;28;20445;-86
2021/03/15 07:17:37;;;;;;;15.17;7.10;;;3.90;97.30;;;;;;5046687;28;20492;-88
2021/03/15 07:20:05;;;;;;;15.33;8.00;;;3.90;97.30;;;;;;5076012;28;20410;-86
2021/03/15 07:22:31;;;;;;;19.40;7.40;;;3.90;97.30;;;;;;5074280;28;20422;-84
2021/03/15 07:25:08;;;;;;;17.43;7.20;;;3.90;97.30;;;;;;5061711;28;20445;-86
2021/03/15 07:27:36;;;;;;;14.97;6.97;;;3.90;97.30;;;;;;5058162;28;20424;-85
2021/03/15 07:30:27;;;;;;;16.77;7.33;;;3.90;97.30;;;;;;5057806;28;20994;-85
2021/03/15 07:32:54;;;;;;;17.83;7.73;;;3.90;97.30;;;;;;5059945;28;20512;-85
2021/03/15 07:35:21;;;;;;;17.73;8.33;;;3.90;97.30;;;;;;5056942;28;20454;-84
2021/03/15 07:37:47;;;;;;;24.10;8.63;;;3.90;97.30;;;;;;5055083;28;20421;-86
2021/03/15 07:40:30;;;;;;;17.90;6.83;;;3.90;97.30;;;;;;5056766;28;20424;-85
2021/03/15 07:43:03;;;;;;;13.40;7.13;;;3.90;97.30;;;;;;5055901;28;20467;-85
2021/03/15 07:45:34;;;;;;;17.13;7.30;;;3.90;97.30;;;;;;5074353;28;20969;-85
2021/03/15 07:48:12;;;;;;;16.03;7.47;;;3.90;97.30;;;;;;5056564;28;20941;-85
2021/03/15 07:50:39;;;;;;;15.70;7.87;;;3.80;97.30;;;;;;5056404;28;20413;-85
2021/03/15 07:53:06;;;;;;;18.53;8.30;;;3.90;97.30;;;;;;5058733;28;20432;-88
2021/03/15 07:55:37;;;;;;;17.03;8.37;;;3.80;97.30;;;;;;5061341;28;20890;-84
2021/03/15 07:58:22;;;;;;;18.73;9.43;;;3.80;97.30;;;;;;5057288;28;20417;-83
2021/03/15 08:00:49;;;;;;;23.73;8.30;;;3.70;97.30;;;;;;5077492;28;20509;-85
2021/03/15 08:03:15;;;;;;;18.13;9.80;;;3.70;97.30;;;;;;5059268;28;20449;-86
2021/03/15 08:05:41;;;;;;;19.93;8.10;;;3.70;97.30;;;;;;5058850;28;20933;-85
2021/03/15 08:08:07;;;;;;;17.33;11.27;;;3.60;97.30;;;;;;5058774;28;20418;-85
2021/03/15 08:10:32;;;;;;;13.97;7.30;;;3.50;97.30;;;;;;5058265;28;20421;-86
2021/03/15 08:12:58;;;;;;;14.30;5.87;;;3.40;97.30;;;;;;5052874;28;20175;-85
2021/03/15 08:15:25;;;;;;;11.80;6.47;;;3.40;97.30;;;;;;5058024;28;20197;-87
2021/03/15 08:17:52;;;;;;;15.67;6.57;;;3.30;97.30;;;;;;5059851;28;20452;-84
2021/03/15 08:20:19;;;;;;;16.23;7.53;;;3.30;97.30;;;;;;5059191;28;20482;-83
2021/03/15 08:22:51;;;;;;;19.13;7.13;;;3.20;97.30;;;;;;5076684;28;20496;-85
2021/03/15 08:25:19;;;;;;;14.40;7.27;;;3.30;97.30;;;;;;5076965;28;20482;-85
2021/03/15 08:27:47;;;;;;;13.33;7.40;;;3.30;97.30;;;;;;5076213;28;20412;-85
2021/03/15 08:30:23;;;;;;;9.93;5.63;;;3.30;97.30;;;;;;5057464;28;20421;-84
2021/03/15 08:32:49;;;;;;;13.80;6.93;;;3.20;97.30;;;;;;5056990;28;20421;-84
2021/03/15 08:35:16;;;;;;;13.90;8.50;;;3.20;97.30;;;;;;5057063;28;20455;-84
2021/03/15 08:37:59;;;;;;;13.43;6.27;;;3.30;97.30;;;;;;5058364;28;20480;-85
2021/03/15 08:40:40;;;;;;;15.47;7.73;;;3.30;97.30;;;;;;5077363;28;20460;-85
2021/03/15 08:43:18;;;;;;;14.30;7.10;;;3.40;97.30;;;;;;5059897;28;20417;-84
2021/03/15 08:45:53;;;;;;;16.97;7.00;;;3.50;97.30;;;;;;5061211;28;20476;-85
2021/03/15 08:48:40;;;;;;;19.37;6.93;;;3.60;97.30;;;;;;5060176;28;20943;-85
2021/03/15 08:51:24;;;;;;;13.20;6.20;;;3.70;97.30;;;;;;5059501;28;20417;-84
2021/03/15 08:53:51;;;;;;;8.60;5.00;;;3.70;97.30;;;;;;5060720;28;20420;-85
2021/03/15 08:56:17;;;;;;;9.13;5.73;;;3.70;97.30;;;;;;5078806;28;20565;-83
2021/03/15 08:58:47;;;;;;;8.30;5.50;;;3.70;97.30;;;;;;5060404;28;20425;-84
2021/03/15 09:01:15;;;;;;;9.63;4.80;;;3.70;97.30;;;;;;5060397;28;20179;-85
2021/03/15 09:03:46;;;;;;;10.50;5.60;;;3.70;97.30;;;;;;5059501;28;20420;-85
2021/03/15 09:06:12;;;;;;;7.97;4.53;;;3.70;97.30;;;;;;5059303;28;20533;-87
2021/03/15 09:09:00;;;;;;;14.17;6.73;;;3.80;97.30;;;;;;5057767;28;20453;-85
2021/03/15 09:11:35;;;;;;;13.63;6.07;;;4.80;97.30;;;;;;5075258;28;20193;-87
2021/03/15 09:14:16;;;;;;;10.33;6.20;;;4.60;97.30;;;;;;5056762;28;20424;-83
2021/03/15 09:16:47;;;;;;;14.20;6.63;;;4.30;97.30;;;;;;5074938;28;20485;-85
2021/03/15 09:19:20;;;;;;;10.10;6.50;;;4.20;97.30;;;;;;5056591;28;20475;-85
2021/03/15 09:21:49;;;;;;;11.20;5.73;;;4.10;97.30;;;;;;5055612;28;20418;-85
2021/03/15 09:24:34;;;;;;;12.00;6.03;;;4.00;97.30;;;;;;5055645;28;20422;-84
2021/03/15 09:27:04;;;;;;;6.93;4.90;;;4.00;97.30;;;;;;5056077;28;20409;-86
2021/03/15 09:29:34;;;;;;;11.60;6.77;;;4.10;97.30;;;;;;5055594;28;20794;-86
2021/03/15 09:32:10;;;;;;;11.60;5.60;;;4.00;97.30;;;;;;5056098;28;20838;-86
2021/03/15 09:34:36;;;;;;;10.90;5.30;;;4.10;97.30;;;;;;5056953;28;20989;-86
2021/03/15 09:37:03;;;;;;;10.87;5.37;;;4.10;97.30;;;;;;5056191;28;20457;-85
2021/03/15 09:39:31;;;;;;;9.73;5.47;;;4.10;97.30;;;;;;5055791;28;20901;-84
2021/03/15 09:41:58;;;;;;;10.10;5.83;;;4.10;97.30;;;;;;5056570;28;20926;-86
2021/03/15 09:44:31;;;;;;;8.53;5.30;;;4.00;97.30;;;;;;5053424;28;20418;-87
2021/03/15 09:46:58;;;;;;;11.70;6.63;;;4.10;97.30;;;;;;5056521;28;20424;-87
2021/03/15 09:49:44;;;;;;;10.50;6.17;;;4.20;97.30;;;;;;5057255;28;20418;-86
2021/03/15 09:52:21;;;;;;;12.03;6.43;;;4.20;97.30;;;;;;5049431;28;20649;-89
2021/03/15 09:54:57;;;;;;;10.57;5.87;;;4.20;97.30;;;;;;5055695;28;20438;-90
2021/03/15 09:57:24;;;;;;;17.53;6.60;;;4.30;97.30;;;;;;5056863;28;20463;-90
2021/03/15 09:59:51;;;;;;;11.17;6.13;;;4.30;97.30;;;;;;5056980;28;20413;-89
2021/03/15 10:02:29;;;;;;;17.17;7.37;;;4.40;97.30;;;;;;5057281;28;20417;-89
2021/03/15 10:04:54;;;;;;;15.10;7.40;;;4.50;97.30;;;;;;5054901;28;20437;-88
2021/03/15 10:07:21;;;;;;;10.37;6.70;;;4.50;97.30;;;;;;5045696;28;20422;-88
2021/03/15 10:09:47;;;;;;;12.20;6.90;;;4.50;97.30;;;;;;5034739;28;20203;-89
2021/03/15 10:12:20;;;;;;;13.60;7.60;;;4.40;97.30;;;;;;5034858;28;20454;-89
2021/03/15 10:14:46;;;;;;;16.87;8.00;;;4.50;97.30;;;;;;5034148;28;20262;-89
2021/03/15 10:17:20;;;;;;;14.37;7.70;;;4.50;97.30;;;;;;5033310;28;20462;-86
2021/03/15 10:19:46;;;;;;;12.93;8.00;;;4.60;97.30;;;;;;5034418;28;20497;-87
2021/03/15 10:22:17;;;;;;;13.77;7.87;;;4.70;97.30;;;;;;5034032;28;20450;-88
2021/03/15 10:24:44;;;;;;;12.37;7.53;;;4.70;97.30;;;;;;5034122;28;20342;-88
2021/03/15 10:27:28;;;;;;;14.47;7.90;;;4.90;97.30;;;;;;5052765;28;20411;-87
2021/03/15 10:29:56;;;;;;;12.70;7.77;;;5.10;97.30;;;;;;5035699;28;20418;-89
2021/03/15 10:32:28;;;;;;;12.27;6.60;;;5.10;97.30;;;;;;5053211;28;20413;-88
2021/03/15 10:34:57;;;;;;;10.13;6.43;;;5.10;97.30;;;;;;5052807;28;20571;-88
2021/03/15 10:37:24;;;;;;;11.23;6.90;;;5.20;97.30;;;;;;5035263;28;20458;-88
2021/03/15 10:39:51;;;;;;;10.90;6.97;;;5.30;97.30;;;;;;5034764;28;20414;-87
2021/03/15 10:42:18;;;;;;;10.73;6.57;;;5.50;97.30;;;;;;5035203;28;20461;-87
2021/03/15 10:44:45;;;;;;;12.10;6.97;;;5.60;97.30;;;;;;5034461;28;20907;-88
2021/03/15 10:47:13;;;;;;;9.20;6.77;;;5.70;97.30;;;;;;5046128;28;20427;-88
2021/03/15 10:49:39;;;;;;;13.33;7.17;;;5.70;97.30;;;;;;5056565;28;20409;-89
2021/03/15 10:52:05;;;;;;;9.57;6.03;;;5.90;97.30;;;;;;5056592;28;20508;-89
2021/03/15 10:54:37;;;;;;;7.07;4.80;;;6.20;97.30;;;;;;5056048;28;20445;-90
2021/03/15 10:57:20;;;;;;;6.60;4.70;;;6.30;97.30;;;;;;5055349;28;20203;-91
2021/03/15 10:59:47;;;;;;;9.77;4.30;;;6.50;97.30;;;;;;5056366;28;20406;-90
2021/03/15 11:02:27;;;;;;;6.27;4.43;;;6.60;97.30;;;;;;5055836;28;20941;-90
2021/03/15 11:04:57;;;;;;;4.37;3.40;;;6.70;97.30;;;;;;5054289;28;20439;-90
2021/03/15 11:07:31;;;;;;;5.30;3.90;;;6.60;97.30;;;;;;5055501;28;20421;-90
2021/03/15 11:09:58;;;;;;;6.10;3.73;;;6.50;97.30;;;;;;5054745;28;20414;-91
2021/03/15 11:12:34;;;;;;;6.33;4.33;;;6.40;97.30;;;;;;5054715;28;20417;-89
2021/03/15 11:15:28;;;;;;;8.23;4.70;;;6.50;97.30;;;;;;5065583;22;20488;-74
2021/03/15 11:18:15;;;;;;;7.13;4.37;;;6.70;97.30;;;;;;5065313;28;20443;-74
2021/03/15 11:20:42;;;;;;;9.00;4.37;;;6.90;97.30;;;;;;5073068;28;20424;-74
2021/03/15 11:23:08;;;;;;;4.13;3.10;;;7.00;97.30;;;;;;5073315;28;20401;-74
2021/03/15 11:25:35;;;;;;;5.87;3.90;;;7.10;97.30;;;;;;5073318;28;20852;-75
2021/03/15 11:28:05;;;;;;;7.17;3.50;;;7.10;97.30;;;;;;5090740;28;20435;-74
2021/03/15 11:30:31;;;;;;;4.90;3.30;;;7.00;97.30;;;;;;5073750;28;20503;-74
2021/03/15 11:33:09;;;;;;;4.20;3.40;;;7.00;97.30;;;;;;5073573;28;20416;-74
2021/03/15 11:35:40;;;;;;;4.77;3.47;;;7.10;97.30;;;;;;5072739;28;20408;-74
2021/03/15 11:38:07;;;;;;;4.03;3.23;;;7.50;97.30;;;;;;5073488;28;20480;-74
2021/03/15 11:40:42;;;;;;;4.60;3.23;;;7.90;97.30;;;;;;5091436;28;20451;-74
2021/03/15 11:43:09;;;;;;;9.07;3.50;;;7.70;97.30;;;;;;5073112;28;20438;-74
2021/03/15 11:45:36;;;;;;;3.43;3.20;;;7.40;97.30;;;;;;5072353;28;20432;-74
2021/03/15 11:48:02;;;;;;;4.97;3.50;;;7.30;97.30;;;;;;5055352;28;20416;-73
2021/03/15 11:50:31;;;;;;;4.73;3.03;;;7.30;97.30;;;;;;5051905;28;20468;-75
2021/03/15 11:52:57;;;;;;;4.83;3.30;;;7.10;97.30;;;;;;5052452;28;20413;-74
2021/03/15 11:55:23;;;;;;;2.80;2.50;;;7.30;97.30;;;;;;5053170;28;20550;-74
2021/03/15 11:57:49;;;;;;;3.13;2.57;;;7.50;97.30;;;;;;5052265;28;20453;-75
2021/03/15 12:00:20;;;;;;;4.07;2.77;;;7.70;97.30;;;;;;5052288;28;20429;-74
2021/03/15 12:02:52;;;;;;;5.80;2.77;;;7.50;97.30;;;;;;5052952;28;20163;-74
2021/03/15 12:05:19;;;;;;;4.20;3.27;;;7.40;97.30;;;;;;5052603;28;20424;-74
2021/03/15 12:07:45;;;;;;;3.63;2.90;;;7.50;97.30;;;;;;5052430;28;20421;-74
2021/03/15 12:10:13;;;;;;;3.90;2.60;;;8.10;97.30;;;;;;5069438;28;20693;-74
2021/03/15 12:12:40;;;;;;;3.33;2.87;;;8.80;97.30;;;;;;5052683;28;20429;-74
2021/03/15 12:15:09;;;;;;;5.23;2.70;;;9.00;97.30;;;;;;5051984;28;20453;-74
2021/03/15 12:17:35;;;;;;;7.37;3.17;;;8.90;96.80;;;;;;5055513;28;20453;-74
2021/03/15 12:20:03;;;;;;;2.90;2.53;;;8.50;97.30;;;;;;5059387;28;20901;-74
2021/03/15 12:22:28;;;;;;;3.33;3.00;;;8.10;97.30;;;;;;5054815;28;20459;-74
2021/03/15 12:24:54;;;;;;;3.10;2.27;;;8.20;97.30;;;;;;5070544;28;20757;-74
2021/03/15 12:27:20;;;;;;;3.13;2.80;;;8.40;97.30;;;;;;5081056;22;20258;-69
2021/03/15 12:29:46;;;;;;;2.93;2.37;;;8.50;97.30;;;;;;5071894;28;20177;-70
2021/03/15 12:32:11;;;;;;;5.77;2.70;;;8.40;96.20;;;;;;5071585;28;20844;-69
2021/03/15 12:34:37;;;;;;;3.13;2.23;;;8.40;96.30;;;;;;5085787;28;20182;-73
2021/03/15 12:37:03;;;;;;;2.93;2.40;;;8.20;96.10;;;;;;5085735;28;20204;-71
2021/03/15 12:39:30;;;;;;;5.67;2.70;;;8.00;96.60;;;;;;5092602;28;20323;-72
2021/03/15 12:41:57;;;;;;;4.43;2.60;;;8.00;97.30;;;;;;5095236;28;20428;-72
2021/03/15 12:44:23;;;;;;;2.73;2.37;;;8.00;97.30;;;;;;5113443;28;20400;-72
2021/03/15 12:46:49;;;;;;;3.40;2.70;;;8.00;97.30;;;;;;5088136;28;20431;-71
2021/03/15 12:49:15;;;;;;;3.47;2.93;;;8.00;97.30;;;;;;5074759;28;20864;-72
2021/03/15 12:51:42;;;;;;;5.83;2.40;;;7.90;97.30;;;;;;5074622;28;20709;-72
2021/03/15 12:54:11;;;;;;;3.60;2.70;;;7.90;97.30;;;;;;5093215;28;20525;-72
2021/03/15 12:56:38;;;;;;;4.47;2.63;;;7.90;97.30;;;;;;5093446;28;20459;-72
2021/03/15 12:59:06;;;;;;;2.70;2.30;;;7.90;97.30;;;;;;5091289;28;20417;-71
2021/03/15 13:01:44;;;;;;;4.63;2.47;;;8.00;97.30;;;;;;5091672;28;20529;-73
2021/03/15 13:04:14;;;;;;;2.87;2.20;;;8.00;97.30;;;;;;5092912;28;20412;-73